Sparta, IL

10:08 PM CDT on April 21, 2018 (GMT -0500)
Sparta Community-Hunter

Weather History for KSAR - February, 2014

Change the Weather History Date:

Monday, February 17, 2014

  Actual Average (KBLV) Record (KBLV)
Temperature  
Mean Temperature 34 °F -  
Max Temperature 42 °F 44 °F 72 °F (1976)
Min Temperature 26 °F 26 °F -1 °F (1958)
Degree Days  
Heating Degree Days 31    
Moisture  
Dew Point 28 °F    
Average Humidity 78    
Maximum Humidity 100    
Minimum Humidity 53    
Precipitation  
Precipitation 0.03 in - - ()
Sea Level Pressure  
Sea Level Pressure 29.98 in    
Wind  
Wind Speed 10 mph (South)    
Max Wind Speed 17 mph    
Max Gust Speed 30 mph    
Visibility 9 miles    
Events Rain , Thunderstorm    
Averages and records for this station are not official NWS values.
T = Trace of Precipitation, MM = Missing Value Source: NWS Daily Summary

Daily Weather History Graph

Daily Weather History Graph

Search for Another Location

Airport or City:

Astronomy

Feb. 17, 2014 Rise Set
Actual Time 6:46 AM CST 5:39 PM CST
Civil Twilight 6:19 AM CST 6:06 PM CST
Nautical Twilight 5:48 AM CST 6:37 PM CST
Astronomical Twilight 5:18 AM CST 7:07 PM CST
Moon 8:30 PM CST (2/17) 7:50 AM CST (2/17)
Length of Visible Light 11h 46m
Length of Day
10h 53m
Waning Gibbous, 93% of the Moon is Illuminated
Feb 17
Waning Gibbous
Feb 22
Last Quarter
Mar 1
New
Mar 8
First Quarter
Mar 16
Full

Hourly Weather History & Observations

Time (CST) Temp. Windchill Dew Point Humidity Pressure Visibility Wind Dir Wind Speed Gust Speed Precip Events Conditions
12:15 AM 26.6 °F 16.8 °F 21.2 °F 80% 30.18 in 10.0 mi ESE 10.4 mph 16.1 mph N/A   Clear
12:35 AM 26.6 °F 16.8 °F 21.2 °F 80% 30.17 in 10.0 mi ESE 10.4 mph - N/A   Clear
12:55 AM 26.6 °F 16.8 °F 21.2 °F 80% 30.17 in 10.0 mi ESE 10.4 mph - N/A   Clear
1:15 AM 26.6 °F 17.5 °F 21.2 °F 80% 30.16 in 10.0 mi East 9.2 mph - N/A   Clear
1:35 AM 26.6 °F 17.5 °F 21.2 °F 80% 30.16 in 10.0 mi ESE 9.2 mph - N/A   Clear
1:55 AM 26.6 °F 17.5 °F 21.2 °F 80% 30.15 in 10.0 mi East 9.2 mph - N/A   Clear
2:15 AM 26.6 °F 16.8 °F 21.2 °F 80% 30.15 in 10.0 mi East 10.4 mph - N/A   Clear
2:35 AM 26.6 °F 15.7 °F 21.2 °F 80% 30.13 in 10.0 mi East 12.7 mph - N/A   Clear
2:55 AM 26.6 °F 17.5 °F 21.2 °F 80% 30.12 in 10.0 mi ESE 9.2 mph - N/A   Scattered Clouds
3:15 AM 26.6 °F 16.2 °F 21.2 °F 80% 30.11 in 10.0 mi ESE 11.5 mph - N/A   Scattered Clouds
3:35 AM 26.6 °F 16.2 °F 21.2 °F 80% 30.09 in 10.0 mi ESE 11.5 mph - N/A   Clear
3:55 AM 26.6 °F 14.7 °F 21.2 °F 80% 30.07 in 10.0 mi ESE 15.0 mph - N/A   Clear
4:15 AM 26.6 °F 15.7 °F 21.2 °F 80% 30.06 in 10.0 mi ESE 12.7 mph 23.0 mph N/A   Clear
4:35 AM 26.6 °F 15.7 °F 21.2 °F 80% 30.05 in 10.0 mi ESE 12.7 mph - N/A   Mostly Cloudy
4:55 AM 26.6 °F 16.8 °F 23.0 °F 86% 30.05 in 10.0 mi SE 10.4 mph 16.1 mph N/A   Overcast
5:15 AM 28.4 °F 19.1 °F 23.0 °F 80% 30.05 in 10.0 mi SE 10.4 mph - N/A   Overcast
5:35 AM 28.4 °F 17.0 °F 23.0 °F 80% 30.02 in 10.0 mi SE 15.0 mph 20.7 mph N/A   Overcast
5:55 AM 28.4 °F 16.2 °F 23.0 °F 80% 30.01 in 10.0 mi SE 17.3 mph - N/A   Overcast
6:15 AM 28.4 °F 16.6 °F 23.0 °F 80% 30.00 in 10.0 mi ESE 16.1 mph - N/A   Overcast
6:35 AM 28.4 °F 17.5 °F 24.8 °F 86% 29.98 in 10.0 mi SE 13.8 mph 21.9 mph N/A   Overcast
6:55 AM 28.4 °F 18.0 °F 24.8 °F 86% 29.97 in 10.0 mi SE 12.7 mph - N/A   Overcast
7:15 AM 30.2 °F 20.2 °F 26.6 °F 86% 29.97 in 10.0 mi SE 12.7 mph 17.3 mph N/A   Overcast
7:35 AM 30.2 °F 21.9 °F 26.6 °F 86% 29.96 in 10.0 mi SE 9.2 mph - N/A   Overcast
7:55 AM 30.2 °F 20.2 °F 26.6 °F 86% 29.94 in 10.0 mi SE 12.7 mph 19.6 mph N/A   Overcast
8:15 AM 30.2 °F 20.8 °F 26.6 °F 86% 29.93 in 10.0 mi SE 11.5 mph 17.3 mph N/A   Overcast
8:35 AM 32.0 °F 24.2 °F 26.6 °F 80% 29.92 in 10.0 mi SE 9.2 mph 16.1 mph N/A   Overcast
8:55 AM 32.0 °F 22.5 °F 28.4 °F 87% 29.90 in 10.0 mi SE 12.7 mph - N/A   Overcast
9:15 AM 32.0 °F 23.6 °F 28.4 °F 87% 29.89 in 10.0 mi SE 10.4 mph - N/A   Overcast
9:35 AM 32.0 °F 24.2 °F 28.4 °F 87% 29.87 in 10.0 mi SE 9.2 mph - N/A   Overcast
9:55 AM 32.0 °F 24.2 °F 28.4 °F 87% 29.86 in 10.0 mi SE 9.2 mph - N/A   Overcast
10:15 AM 32.0 °F 27.5 °F 30.2 °F 93% 29.86 in 3.0 mi South 4.6 mph - 0.01 in Rain , Thunderstorm Thunderstorms and Rain
10:35 AM 32.0 °F 27.5 °F 32.0 °F 100% 29.83 in 3.0 mi SSE 4.6 mph - 0.03 in Rain , Thunderstorm Rain
10:55 AM 33.8 °F 27.0 °F 32.0 °F 93% 29.82 in 5.0 mi SSE 8.1 mph - 0.03 in   Overcast
11:15 AM 33.8 °F 27.7 °F 32.0 °F 93% 29.81 in 7.0 mi South 6.9 mph - N/A   Overcast
11:35 AM 33.8 °F 28.6 °F 32.0 °F 93% 29.81 in 5.0 mi SSW 5.8 mph - N/A Thunderstorm Overcast
11:55 AM 33.8 °F 26.4 °F 32.0 °F 93% 29.81 in 7.0 mi SSW 9.2 mph - N/A   Overcast
12:15 PM 33.8 °F 27.0 °F 32.0 °F 93% 29.81 in 5.0 mi SSW 8.1 mph - N/A Thunderstorm Unknown
12:35 PM 33.8 °F 25.8 °F 32.0 °F 93% 29.81 in 1.5 mi SW 10.4 mph - N/A   Drizzle
12:55 PM 33.8 °F 28.6 °F 33.8 °F 100% 29.80 in 2.0 mi SW 5.8 mph - N/A Thunderstorm Overcast
1:15 PM 35.6 °F 30.7 °F 33.8 °F 93% 29.80 in 2.5 mi SW 5.8 mph - N/A Thunderstorm Overcast
1:35 PM 35.6 °F 29.2 °F 35.6 °F 100% 29.81 in 3.0 mi WSW 8.1 mph - N/A   Overcast
1:55 PM 37.4 °F 31.4 °F 35.6 °F 93% 29.81 in 4.0 mi WSW 8.1 mph - N/A   Overcast
2:15 PM 41.0 °F 33.1 °F 37.4 °F 87% 29.81 in 7.0 mi West 15.0 mph 20.7 mph N/A   Overcast
2:35 PM 42.8 °F 35.8 °F 37.4 °F 81% 29.84 in 10.0 mi West 13.8 mph 20.7 mph N/A   Scattered Clouds
2:55 PM 41.0 °F 33.1 °F 35.6 °F 81% 29.87 in 10.0 mi WNW 15.0 mph 28.8 mph N/A   Mostly Cloudy
3:15 PM 41.0 °F 32.5 °F 33.8 °F 76% 29.89 in 10.0 mi WNW 17.3 mph 29.9 mph N/A   Scattered Clouds
3:35 PM 42.8 °F 35.1 °F 33.8 °F 70% 29.89 in 10.0 mi WNW 16.1 mph 24.2 mph N/A   Clear
3:55 PM 42.8 °F 36.6 °F 33.8 °F 70% 29.90 in 10.0 mi WNW 11.5 mph 24.2 mph N/A   Clear
4:15 PM 42.8 °F 36.6 °F 33.8 °F 70% 29.91 in 10.0 mi West 11.5 mph 20.7 mph N/A   Clear
4:35 PM 42.8 °F 36.2 °F 33.8 °F 70% 29.92 in 10.0 mi West 12.7 mph 17.3 mph N/A   Clear
4:55 PM 42.8 °F 36.6 °F 33.8 °F 70% 29.93 in 10.0 mi West 11.5 mph 19.6 mph N/A   Clear
5:15 PM 42.8 °F 37.5 °F 32.0 °F 66% 29.94 in 10.0 mi West 9.2 mph - N/A   Clear
5:35 PM 42.8 °F 40.1 °F 32.0 °F 66% 29.95 in 10.0 mi West 4.6 mph - N/A   Clear
5:55 PM 41.0 °F 36.4 °F 32.0 °F 70% 29.97 in 10.0 mi West 6.9 mph - N/A   Clear
6:15 PM 41.0 °F 36.4 °F 32.0 °F 70% 29.99 in 10.0 mi West 6.9 mph - N/A   Clear
6:35 PM 41.0 °F 35.8 °F 32.0 °F 70% 30.00 in 10.0 mi West 8.1 mph - N/A   Clear
6:55 PM 41.0 °F 37.1 °F 32.0 °F 70% 30.01 in 10.0 mi West 5.8 mph - N/A   Clear
7:15 PM 41.0 °F 37.1 °F 32.0 °F 70% 30.02 in 10.0 mi WSW 5.8 mph - N/A   Clear
7:35 PM 41.0 °F 35.8 °F 30.2 °F 65% 30.02 in 10.0 mi West 8.1 mph - N/A   Clear
7:55 PM 41.0 °F 37.1 °F 30.2 °F 65% 30.03 in 10.0 mi West 5.8 mph - N/A   Clear
8:15 PM 41.0 °F 38.0 °F 30.2 °F 65% 30.03 in 10.0 mi WSW 4.6 mph - N/A   Clear
8:35 PM 41.0 °F 37.1 °F 30.2 °F 65% 30.04 in 10.0 mi WSW 5.8 mph - N/A   Clear
8:55 PM 41.0 °F 37.1 °F 30.2 °F 65% 30.05 in 10.0 mi WSW 5.8 mph - N/A   Clear
9:15 PM 41.0 °F 37.1 °F 28.4 °F 61% 30.05 in 10.0 mi WSW 5.8 mph - N/A   Clear
9:35 PM 39.2 °F 35.0 °F 28.4 °F 65% 30.05 in 10.0 mi SW 5.8 mph - N/A   Clear
9:55 PM 39.2 °F 35.0 °F 28.4 °F 65% 30.05 in 10.0 mi SW 5.8 mph - N/A   Clear
10:15 PM 39.2 °F 34.2 °F 28.4 °F 65% 30.06 in 10.0 mi SW 6.9 mph - N/A   Clear
10:35 PM 41.0 °F 36.4 °F 26.6 °F 57% 30.06 in 10.0 mi SW 6.9 mph - N/A   Clear
10:55 PM 41.0 °F 35.8 °F 26.6 °F 57% 30.06 in 10.0 mi SW 8.1 mph - N/A   Clear
11:15 PM 41.0 °F 35.8 °F 26.6 °F 57% 30.06 in 10.0 mi SW 8.1 mph - N/A   Clear
11:35 PM 41.0 °F 37.1 °F 24.8 °F 53% 30.05 in 10.0 mi SW 5.8 mph - N/A   Clear
11:55 PM 39.2 °F 35.9 °F 24.8 °F 56% 30.06 in 10.0 mi SSW 4.6 mph - N/A   Clear